Time;durP1;ratioP1;P1;durP2;ratioP2;P2;SDS_P1;SDS_P2;PMS_P1;PMS_P2;Temp;Humidity;BMP_temperature;BMP_pressure;BME280_temperature;BME280_humidity;BME280_pressure;Samples;Min_cycle;Max_cycle;Signal;HPM_P1;HPM_P2
2022/03/24 00:00:08;;;;;;;24.90;14.90;;;4.20;99.90;;;;;;4971355;28;20418;-72
2022/03/24 00:02:34;;;;;;;22.00;13.73;;;4.30;99.90;;;;;;4971879;28;20441;-72
2022/03/24 00:05:00;;;;;;;19.07;12.53;;;4.20;99.90;;;;;;4972932;28;20413;-72
2022/03/24 00:07:26;;;;;;;16.47;12.47;;;4.10;99.90;;;;;;4973264;28;20418;-71
2022/03/24 00:09:51;;;;;;;17.87;11.90;;;4.10;99.90;;;;;;4972148;28;20643;-72
2022/03/24 00:12:17;;;;;;;23.13;12.90;;;4.10;99.90;;;;;;4971635;28;20282;-71
2022/03/24 00:14:43;;;;;;;22.30;12.97;;;4.00;99.90;;;;;;4972516;28;20218;-69
2022/03/24 00:17:09;;;;;;;24.83;13.50;;;4.00;99.90;;;;;;4973534;28;20414;-71
2022/03/24 00:19:35;;;;;;;20.57;13.90;;;3.90;99.90;;;;;;4971649;28;20183;-72
2022/03/24 00:22:01;;;;;;;22.87;13.67;;;3.90;99.90;;;;;;4972021;28;20472;-71
2022/03/24 00:24:26;;;;;;;18.80;12.93;;;3.80;99.90;;;;;;4971263;28;20493;-72
2022/03/24 00:26:52;;;;;;;23.03;14.80;;;3.80;99.90;;;;;;4972414;28;20177;-72
2022/03/24 00:29:19;;;;;;;26.83;14.83;;;3.80;99.90;;;;;;4972056;28;20188;-71
2022/03/24 00:31:46;;;;;;;23.43;14.87;;;3.80;99.90;;;;;;4971478;28;20766;-71
2022/03/24 00:34:11;;;;;;;27.27;14.43;;;3.70;99.90;;;;;;4972270;28;20428;-72
2022/03/24 00:36:37;;;;;;;30.57;16.43;;;3.70;99.90;;;;;;4970032;28;20421;-71
2022/03/24 00:39:04;;;;;;;22.60;13.43;;;3.70;99.90;;;;;;4971648;28;20206;-71
2022/03/24 00:41:30;;;;;;;26.13;14.07;;;3.70;99.90;;;;;;4971362;28;20507;-71
2022/03/24 00:43:56;;;;;;;29.80;13.80;;;3.60;99.90;;;;;;4971143;28;20268;-72
2022/03/24 00:46:22;;;;;;;24.90;14.30;;;3.60;99.90;;;;;;4972238;28;20746;-72
2022/03/24 00:48:49;;;;;;;21.43;13.90;;;3.60;99.90;;;;;;4971263;28;20220;-72
2022/03/24 00:51:15;;;;;;;21.30;13.47;;;3.50;99.90;;;;;;4971433;28;20444;-71
2022/03/24 00:53:42;;;;;;;28.73;15.30;;;3.50;99.90;;;;;;4970495;28;20522;-71
2022/03/24 00:56:07;;;;;;;26.60;13.40;;;3.50;99.90;;;;;;4955402;28;20219;-71
2022/03/24 00:58:33;;;;;;;28.67;13.60;;;3.40;99.90;;;;;;4970583;28;20425;-71
2022/03/24 01:00:58;;;;;;;22.37;15.73;;;3.40;99.90;;;;;;4971010;28;20206;-71
2022/03/24 01:03:24;;;;;;;23.00;14.17;;;3.40;99.90;;;;;;4954313;28;20709;-71
2022/03/24 01:05:49;;;;;;;21.20;13.43;;;3.30;99.90;;;;;;4968207;28;20201;-71
2022/03/24 01:08:17;;;;;;;21.43;14.00;;;3.30;99.90;;;;;;4969877;28;20182;-71
2022/03/24 01:10:43;;;;;;;27.20;13.80;;;3.20;99.90;;;;;;4970666;28;20212;-71
2022/03/24 01:13:09;;;;;;;23.03;12.90;;;3.20;99.90;;;;;;4970493;28;20419;-72
2022/03/24 01:15:35;;;;;;;26.03;13.23;;;3.10;99.90;;;;;;4970704;28;20221;-71
2022/03/24 01:18:01;;;;;;;22.30;13.67;;;3.20;99.90;;;;;;4970234;28;20914;-72
2022/03/24 01:20:28;;;;;;;23.30;15.33;;;3.10;99.90;;;;;;4971876;28;21020;-71
2022/03/24 01:22:54;;;;;;;18.67;12.67;;;3.10;99.90;;;;;;4970421;28;20461;-71
2022/03/24 01:25:19;;;;;;;26.33;13.23;;;3.00;99.90;;;;;;4970857;28;20482;-71
2022/03/24 01:27:46;;;;;;;24.40;14.10;;;3.00;99.90;;;;;;4970123;28;20505;-71
2022/03/24 01:30:12;;;;;;;20.43;12.37;;;3.00;99.90;;;;;;4970734;28;20305;-71
2022/03/24 01:32:38;;;;;;;22.17;12.93;;;3.00;99.90;;;;;;4954101;28;20522;-70
2022/03/24 01:35:07;;;;;;;22.50;13.73;;;2.90;99.90;;;;;;4971453;28;20997;-71
2022/03/24 01:37:34;;;;;;;22.50;14.43;;;2.90;99.90;;;;;;4969779;28;20296;-71
2022/03/24 01:40:00;;;;;;;25.70;14.37;;;2.80;99.90;;;;;;4971590;28;20588;-71
2022/03/24 01:42:26;;;;;;;22.40;13.23;;;2.90;99.90;;;;;;4970520;28;20542;-71
2022/03/24 01:44:54;;;;;;;22.00;14.17;;;2.90;99.90;;;;;;4969584;28;20279;-71
2022/03/24 01:47:20;;;;;;;23.30;15.30;;;2.80;99.90;;;;;;4970203;28;20437;-70
2022/03/24 01:49:49;;;;;;;25.40;15.50;;;2.80;99.90;;;;;;4970662;28;20960;-71
2022/03/24 01:52:18;;;;;;;21.37;14.40;;;2.70;99.90;;;;;;4970594;28;20585;-71
2022/03/24 01:54:47;;;;;;;22.50;14.40;;;2.70;99.90;;;;;;4953515;28;20552;-71
2022/03/24 01:57:17;;;;;;;28.03;14.60;;;2.70;99.90;;;;;;4971597;28;20496;-71
2022/03/24 01:59:43;;;;;;;26.53;15.47;;;2.70;99.90;;;;;;4969591;28;20542;-72
2022/03/24 03:32:45;;;;;;;31.53;15.10;;;1.80;99.90;;;;;;5198489;23;21052;-77
2022/03/24 03:35:11;;;;;;;31.50;15.67;;;1.80;99.90;;;;;;4985829;28;20460;-74
2022/03/24 03:37:38;;;;;;;25.20;15.23;;;1.80;99.90;;;;;;4993374;28;20181;-73
2022/03/24 03:40:04;;;;;;;24.53;15.13;;;1.70;99.90;;;;;;4986743;28;20181;-74
2022/03/24 03:42:30;;;;;;;31.77;15.30;;;1.70;99.90;;;;;;4990576;28;20477;-72
2022/03/24 03:44:55;;;;;;;25.90;15.73;;;1.70;99.90;;;;;;4993042;28;20421;-73
2022/03/24 03:47:21;;;;;;;27.50;15.43;;;1.80;99.90;;;;;;4992852;28;20196;-75
2022/03/24 03:49:46;;;;;;;24.43;15.50;;;1.70;99.90;;;;;;4993860;28;20275;-74
2022/03/24 03:52:12;;;;;;;28.40;15.73;;;1.70;99.90;;;;;;4993221;28;20568;-74
2022/03/24 03:54:38;;;;;;;27.17;17.23;;;1.60;99.90;;;;;;4992889;28;20240;-72
2022/03/24 03:57:03;;;;;;;29.60;17.77;;;1.60;99.90;;;;;;4992834;28;20227;-73
2022/03/24 03:59:30;;;;;;;28.00;16.20;;;1.60;99.90;;;;;;4993352;28;20602;-73
2022/03/24 04:01:57;;;;;;;28.90;15.53;;;1.60;99.90;;;;;;4992390;28;20866;-74
2022/03/24 04:04:23;;;;;;;32.13;17.40;;;1.50;99.90;;;;;;4992640;28;20385;-74
2022/03/24 04:06:49;;;;;;;28.77;16.47;;;1.50;99.90;;;;;;4993539;28;20398;-74
2022/03/24 04:09:15;;;;;;;32.17;15.77;;;1.50;99.90;;;;;;4992699;28;20183;-75
2022/03/24 04:11:40;;;;;;;31.23;16.50;;;1.50;99.90;;;;;;4991754;28;20202;-74
2022/03/24 04:14:07;;;;;;;28.60;15.27;;;1.50;99.90;;;;;;4992290;28;20426;-74
2022/03/24 04:16:32;;;;;;;27.23;15.73;;;1.40;99.90;;;;;;4992996;28;20729;-73
2022/03/24 04:18:58;;;;;;;28.17;14.77;;;1.40;99.90;;;;;;4992916;28;20502;-72
2022/03/24 04:21:23;;;;;;;30.30;16.67;;;1.40;99.90;;;;;;4992608;28;20199;-73
2022/03/24 04:23:49;;;;;;;28.27;16.07;;;1.50;99.90;;;;;;4992467;28;20256;-76
2022/03/24 04:26:14;;;;;;;23.87;14.90;;;1.40;99.90;;;;;;4992517;28;20186;-76
2022/03/24 04:28:43;;;;;;;22.07;13.60;;;1.40;99.90;;;;;;4992886;28;20176;-77
2022/03/24 04:31:09;;;;;;;26.87;15.47;;;1.40;99.90;;;;;;4992442;28;20206;-76
2022/03/24 04:33:35;;;;;;;29.53;15.83;;;1.40;99.90;;;;;;4991940;28;20418;-77
2022/03/24 04:36:00;;;;;;;22.43;15.40;;;1.30;99.90;;;;;;4992376;28;20203;-77
2022/03/24 04:38:26;;;;;;;39.93;16.30;;;1.30;99.90;;;;;;4992610;28;20177;-76
2022/03/24 04:40:53;;;;;;;25.83;15.50;;;1.30;99.90;;;;;;4992501;28;20234;-77
2022/03/24 04:43:19;;;;;;;26.93;14.70;;;1.20;99.90;;;;;;4991767;28;20433;-75
2022/03/24 04:45:45;;;;;;;22.17;14.37;;;1.20;99.90;;;;;;4992282;28;20409;-76
2022/03/24 04:48:10;;;;;;;22.17;13.80;;;1.30;99.90;;;;;;4992535;28;20428;-76
2022/03/24 04:50:36;;;;;;;21.00;13.17;;;1.20;99.90;;;;;;4992347;28;20551;-76
2022/03/24 04:53:02;;;;;;;22.93;14.13;;;1.20;99.90;;;;;;4991340;28;20222;-76
2022/03/24 04:55:28;;;;;;;27.30;14.30;;;1.20;99.90;;;;;;4992183;28;20215;-76
2022/03/24 04:57:53;;;;;;;28.53;13.53;;;1.20;99.90;;;;;;4992234;28;20419;-76
2022/03/24 05:00:19;;;;;;;29.20;13.57;;;1.20;99.90;;;;;;4991884;28;20181;-75
2022/03/24 05:02:47;;;;;;;23.57;14.27;;;1.10;99.90;;;;;;4991841;28;20205;-74
2022/03/24 05:05:13;;;;;;;27.23;12.90;;;1.10;99.90;;;;;;4991987;28;20172;-76
2022/03/24 05:07:40;;;;;;;22.33;12.53;;;1.10;99.90;;;;;;4991424;28;20410;-76
2022/03/24 05:10:06;;;;;;;25.93;13.60;;;1.10;99.90;;;;;;4991685;28;20426;-76
2022/03/24 05:12:32;;;;;;;22.67;14.43;;;1.10;99.90;;;;;;4991972;28;20791;-75
2022/03/24 05:14:58;;;;;;;26.40;14.17;;;1.10;99.90;;;;;;4991113;28;20461;-73
2022/03/24 05:17:24;;;;;;;23.60;14.40;;;1.10;99.90;;;;;;4991389;28;20183;-76
2022/03/24 05:19:50;;;;;;;25.53;14.97;;;1.20;99.90;;;;;;4991789;28;20790;-76
2022/03/24 05:22:16;;;;;;;25.93;15.27;;;1.20;99.90;;;;;;4991004;28;20202;-77
2022/03/24 05:24:43;;;;;;;22.17;14.43;;;1.20;99.90;;;;;;4990763;28;21029;-77
2022/03/24 05:27:10;;;;;;;24.20;13.73;;;1.20;99.90;;;;;;4990743;28;20496;-77
2022/03/24 05:29:36;;;;;;;28.10;13.80;;;1.30;99.90;;;;;;4991537;28;20931;-76
2022/03/24 05:32:04;;;;;;;25.00;15.00;;;1.30;99.90;;;;;;4990760;28;20846;-76
2022/03/24 05:34:30;;;;;;;27.03;14.93;;;1.40;99.90;;;;;;4990826;28;20430;-76
2022/03/24 05:36:56;;;;;;;25.77;14.73;;;1.30;99.90;;;;;;4990834;28;20427;-76
2022/03/24 05:39:21;;;;;;;22.17;13.90;;;1.40;99.90;;;;;;4991019;28;20422;-76
2022/03/24 05:41:47;;;;;;;26.73;14.67;;;1.40;99.90;;;;;;4991213;28;20269;-76
2022/03/24 05:44:12;;;;;;;33.27;16.57;;;1.40;99.90;;;;;;4990548;28;20222;-76
2022/03/24 05:46:41;;;;;;;26.00;14.67;;;1.50;99.90;;;;;;4991029;28;20230;-75
2022/03/24 05:49:08;;;;;;;32.40;16.00;;;1.50;99.90;;;;;;4990536;28;20186;-76
2022/03/24 05:51:35;;;;;;;24.37;14.80;;;1.60;99.90;;;;;;4990982;28;20489;-76
2022/03/24 05:54:01;;;;;;;49.53;17.23;;;1.60;99.90;;;;;;4990553;28;20427;-76
2022/03/24 05:56:26;;;;;;;23.47;14.90;;;1.70;99.90;;;;;;4990651;28;20474;-73
2022/03/24 05:58:52;;;;;;;36.77;15.50;;;1.80;99.90;;;;;;4991089;28;20431;-74
2022/03/24 06:01:20;;;;;;;23.50;14.20;;;1.90;99.90;;;;;;4988645;28;20195;-73
2022/03/24 06:03:47;;;;;;;27.40;15.13;;;2.00;99.90;;;;;;4990668;28;20177;-74
2022/03/24 06:06:13;;;;;;;31.83;18.00;;;2.20;99.90;;;;;;4990694;28;20417;-74
2022/03/24 06:08:42;;;;;;;39.40;16.00;;;2.60;99.90;;;;;;4990898;28;20420;-73
2022/03/24 06:11:13;;;;;;;24.90;15.10;;;3.60;99.90;;;;;;4990423;28;20930;-73
2022/03/24 06:13:40;;;;;;;29.90;15.57;;;4.90;99.90;;;;;;4990038;28;20794;-73
2022/03/24 06:16:06;;;;;;;27.50;15.80;;;6.30;99.90;;;;;;4990517;28;20981;-74
2022/03/24 06:18:32;;;;;;;30.03;17.07;;;7.30;99.90;;;;;;4990949;28;20813;-75
2022/03/24 06:20:59;;;;;;;31.30;16.70;;;8.50;99.90;;;;;;4990299;28;20868;-74
2022/03/24 06:23:25;;;;;;;25.73;16.90;;;9.40;99.90;;;;;;4990145;28;20421;-74
2022/03/24 06:25:51;;;;;;;31.60;17.53;;;10.00;99.90;;;;;;4990273;28;20502;-75
2022/03/24 06:28:16;;;;;;;28.90;17.63;;;11.00;99.90;;;;;;4986197;28;20521;-75
2022/03/24 06:30:42;;;;;;;32.23;17.47;;;11.10;99.90;;;;;;4983953;28;20229;-74
2022/03/24 06:33:07;;;;;;;26.20;19.70;;;11.50;99.90;;;;;;4983889;28;20214;-72
2022/03/24 06:35:33;;;;;;;27.33;19.00;;;12.00;99.90;;;;;;4990070;28;20265;-75
2022/03/24 06:37:58;;;;;;;28.83;17.90;;;12.20;99.90;;;;;;4987136;28;20172;-73
2022/03/24 06:40:24;;;;;;;32.10;20.47;;;12.60;99.90;;;;;;4984855;28;20167;-75
2022/03/24 06:42:50;;;;;;;23.93;17.60;;;13.00;99.90;;;;;;4973348;28;20719;-74
2022/03/24 06:45:16;;;;;;;30.00;19.53;;;13.70;99.90;;;;;;4974760;28;20184;-76
2022/03/24 06:47:42;;;;;;;26.13;19.07;;;13.60;99.90;;;;;;4974866;28;20463;-76
2022/03/24 06:50:10;;;;;;;32.03;19.60;;;14.00;99.90;;;;;;4974693;28;20563;-76
2022/03/24 06:52:36;;;;;;;32.23;21.23;;;14.80;99.90;;;;;;4974816;28;20447;-75
2022/03/24 06:55:02;;;;;;;23.80;19.10;;;14.80;99.90;;;;;;4974098;28;20998;-75
2022/03/24 06:57:29;;;;;;;26.90;19.37;;;14.80;99.90;;;;;;4974673;28;20564;-77
2022/03/24 06:59:54;;;;;;;32.73;20.70;;;15.40;99.90;;;;;;4975085;28;20551;-75
2022/03/24 07:02:20;;;;;;;24.27;19.83;;;16.10;99.90;;;;;;4975346;28;21149;-74
2022/03/24 07:04:47;;;;;;;27.37;19.00;;;16.10;99.90;;;;;;4974156;28;20172;-74
2022/03/24 07:07:13;;;;;;;26.93;18.73;;;16.50;99.10;;;;;;4974489;28;20423;-76
2022/03/24 07:09:39;;;;;;;29.60;20.37;;;16.50;97.00;;;;;;4975983;28;20951;-76
2022/03/24 07:12:05;;;;;;;27.50;19.60;;;16.30;97.30;;;;;;4976745;28;20966;-76
2022/03/24 07:14:31;;;;;;;28.50;20.47;;;15.80;97.80;;;;;;4976092;28;20453;-76
2022/03/24 07:16:57;;;;;;;27.30;20.63;;;15.50;98.60;;;;;;4976538;28;20431;-77
2022/03/24 07:19:23;;;;;;;29.23;20.57;;;15.40;98.00;;;;;;4979697;28;20431;-75
2022/03/24 07:21:51;;;;;;;30.17;21.40;;;15.10;98.30;;;;;;4965071;28;20200;-76
2022/03/24 07:24:16;;;;;;;30.60;21.37;;;15.00;97.10;;;;;;4980268;28;20427;-76
2022/03/24 07:26:42;;;;;;;30.30;20.30;;;14.30;98.70;;;;;;4980529;28;20423;-76
2022/03/24 07:29:10;;;;;;;30.47;20.40;;;14.20;99.50;;;;;;4983013;28;20188;-77
2022/03/24 07:31:37;;;;;;;29.57;19.83;;;14.10;99.10;;;;;;4985398;28;20459;-77
2022/03/24 07:34:04;;;;;;;28.90;20.77;;;14.30;99.20;;;;;;4984938;28;20423;-77
2022/03/24 07:36:30;;;;;;;30.50;20.60;;;14.20;98.40;;;;;;4980419;28;20470;-79
2022/03/24 07:39:00;;;;;;;36.07;20.50;;;14.20;98.70;;;;;;4983406;28;20499;-79
2022/03/24 07:41:27;;;;;;;34.63;20.97;;;14.40;98.80;;;;;;4981782;28;20562;-79
2022/03/24 07:43:53;;;;;;;35.53;22.00;;;14.40;98.30;;;;;;4983836;28;20455;-78
2022/03/24 07:46:18;;;;;;;33.83;20.17;;;14.10;99.90;;;;;;4978374;28;20518;-77
2022/03/24 07:48:47;;;;;;;33.27;20.90;;;14.40;99.80;;;;;;4978074;28;20507;-79
2022/03/24 07:51:13;;;;;;;31.77;22.13;;;14.60;98.50;;;;;;4974585;28;20235;-77
2022/03/24 07:53:55;;;;;;;41.13;21.83;;;14.80;98.00;;;;;;4972584;28;20451;-74
2022/03/24 07:56:27;;;;;;;30.33;20.30;;;14.60;97.50;;;;;;4974065;28;20498;-75
2022/03/24 07:58:54;;;;;;;28.97;19.77;;;14.80;97.60;;;;;;4975550;28;20514;-77
2022/03/24 08:01:30;;;;;;;31.57;21.07;;;14.90;99.00;;;;;;4973742;28;20435;-76
2022/03/24 08:03:58;;;;;;;34.63;21.20;;;15.10;96.80;;;;;;4973629;28;20445;-76
2022/03/24 08:06:24;;;;;;;32.57;21.83;;;15.20;97.40;;;;;;4972911;28;21056;-74
2022/03/24 08:08:49;;;;;;;31.53;20.67;;;15.50;96.70;;;;;;4973958;28;20767;-77
2022/03/24 08:11:15;;;;;;;33.37;20.80;;;15.50;96.60;;;;;;4971903;28;20246;-76
2022/03/24 08:13:40;;;;;;;38.60;21.43;;;15.60;97.10;;;;;;4987631;28;20567;-76
2022/03/24 08:16:06;;;;;;;33.73;21.97;;;15.70;96.80;;;;;;4991924;28;20222;-75
2022/03/24 08:18:32;;;;;;;38.00;20.47;;;16.00;95.80;;;;;;4992738;28;20214;-77
2022/03/24 08:20:58;;;;;;;33.23;21.60;;;16.10;95.70;;;;;;4992471;28;20206;-76
2022/03/24 08:23:24;;;;;;;28.23;19.13;;;16.40;94.50;;;;;;4993061;28;20942;-78
2022/03/24 08:25:51;;;;;;;30.27;22.00;;;16.50;94.00;;;;;;4993162;28;20772;-78
2022/03/24 08:28:17;;;;;;;37.23;21.10;;;16.50;93.30;;;;;;4992747;28;20425;-77
2022/03/24 08:30:46;;;;;;;36.33;22.87;;;16.30;93.60;;;;;;4992345;28;20434;-76
2022/03/24 08:33:12;;;;;;;28.07;21.60;;;16.70;94.30;;;;;;4990535;28;20206;-76
2022/03/24 08:35:39;;;;;;;35.40;22.37;;;16.70;94.50;;;;;;4992331;28;20564;-76
2022/03/24 08:38:05;;;;;;;41.17;22.50;;;16.60;94.20;;;;;;4992182;28;20927;-76
2022/03/24 08:40:31;;;;;;;39.57;23.00;;;16.80;93.10;;;;;;4992481;28;20779;-76
2022/03/24 08:42:57;;;;;;;35.53;22.07;;;16.80;92.90;;;;;;4990455;28;20541;-76
2022/03/24 08:45:22;;;;;;;41.47;22.40;;;17.20;92.70;;;;;;4992002;28;20238;-76
2022/03/24 08:47:48;;;;;;;30.70;22.07;;;17.40;92.30;;;;;;4991919;28;20207;-76
2022/03/24 08:50:14;;;;;;;33.73;21.53;;;17.50;92.20;;;;;;4991870;28;20242;-77
2022/03/24 08:52:43;;;;;;;29.00;20.40;;;17.80;91.10;;;;;;4991192;28;20290;-76
2022/03/24 08:55:11;;;;;;;33.03;23.10;;;18.20;91.60;;;;;;4991499;28;20242;-76
2022/03/24 08:57:37;;;;;;;34.10;21.90;;;18.40;91.00;;;;;;4991058;28;20421;-76
2022/03/24 09:00:13;;;;;;;33.07;22.87;;;18.50;89.10;;;;;;4990162;28;20792;-76
2022/03/24 09:02:40;;;;;;;38.53;21.83;;;18.30;87.60;;;;;;4990939;28;20437;-76
2022/03/24 09:05:06;;;;;;;33.37;23.10;;;18.40;88.90;;;;;;4991031;28;20417;-76
2022/03/24 09:07:32;;;;;;;37.40;22.03;;;18.40;85.30;;;;;;4991678;28;20418;-76
2022/03/24 09:09:57;;;;;;;31.37;22.30;;;18.20;85.20;;;;;;4991546;28;20206;-77
2022/03/24 09:12:24;;;;;;;34.43;22.10;;;18.40;84.50;;;;;;4991040;28;20285;-77
2022/03/24 09:14:50;;;;;;;39.40;24.20;;;18.60;84.60;;;;;;4991227;28;20730;-77
2022/03/24 09:17:15;;;;;;;32.43;24.20;;;18.80;85.00;;;;;;4990901;28;20418;-76
2022/03/24 09:19:41;;;;;;;33.90;21.97;;;19.00;83.00;;;;;;4991485;28;20545;-76
2022/03/24 09:22:06;;;;;;;36.17;22.83;;;19.20;86.00;;;;;;4990715;28;20545;-76
2022/03/24 09:24:36;;;;;;;35.40;23.00;;;19.30;82.80;;;;;;4989714;28;20296;-75
2022/03/24 09:27:02;;;;;;;35.70;24.00;;;19.50;82.80;;;;;;4991046;28;20186;-75
2022/03/24 09:29:28;;;;;;;34.57;22.80;;;19.40;83.20;;;;;;4991055;28;20403;-75
2022/03/24 09:31:53;;;;;;;43.00;23.90;;;19.70;82.50;;;;;;4990886;28;20571;-75
2022/03/24 09:34:19;;;;;;;34.33;22.03;;;20.00;80.20;;;;;;4990322;28;20194;-75
2022/03/24 09:36:45;;;;;;;36.73;25.03;;;20.10;81.50;;;;;;4991360;28;20202;-76
2022/03/24 09:39:11;;;;;;;39.83;24.67;;;20.50;79.50;;;;;;4991116;28;20183;-76
2022/03/24 09:41:37;;;;;;;42.30;24.17;;;20.60;78.60;;;;;;4990467;28;20266;-76
2022/03/24 09:44:04;;;;;;;37.73;23.90;;;20.70;77.80;;;;;;4990214;28;20410;-75
2022/03/24 09:46:31;;;;;;;32.40;22.80;;;20.60;75.60;;;;;;4991021;28;20407;-76
2022/03/24 09:48:58;;;;;;;37.57;23.23;;;20.60;76.30;;;;;;4991157;28;20602;-76
2022/03/24 09:51:25;;;;;;;37.20;24.13;;;20.60;74.00;;;;;;4990452;28;20449;-76
2022/03/24 09:53:51;;;;;;;46.10;23.57;;;20.60;73.00;;;;;;4990017;28;20430;-76
2022/03/24 09:56:18;;;;;;;39.40;23.90;;;20.80;73.00;;;;;;4990868;28;21002;-76
2022/03/24 09:58:44;;;;;;;36.27;23.83;;;20.90;72.60;;;;;;4991147;28;20186;-76
2022/03/24 10:01:13;;;;;;;34.50;23.73;;;21.00;72.40;;;;;;4990400;28;20442;-76
2022/03/24 10:03:38;;;;;;;34.20;23.50;;;20.20;73.50;;;;;;4990000;28;20415;-76
2022/03/24 10:06:07;;;;;;;34.60;23.87;;;20.40;70.60;;;;;;4990706;28;20529;-76
2022/03/24 10:08:35;;;;;;;32.13;23.70;;;20.80;70.00;;;;;;4989555;28;20179;-77
2022/03/24 10:11:08;;;;;;;31.97;24.07;;;21.20;70.50;;;;;;4990365;28;20435;-76
2022/03/24 10:13:53;;;;;;;34.47;24.93;;;21.30;67.30;;;;;;4990075;28;20450;-76
2022/03/24 10:16:34;;;;;;;36.97;24.47;;;21.50;65.40;;;;;;4988616;28;20489;-76
2022/03/24 10:19:02;;;;;;;31.27;22.20;;;21.30;65.10;;;;;;4989405;28;20453;-76
2022/03/24 10:21:29;;;;;;;35.73;24.13;;;21.50;64.70;;;;;;4990457;28;20654;-76
2022/03/24 10:24:00;;;;;;;30.13;21.60;;;21.60;64.90;;;;;;4989730;28;20413;-76
2022/03/24 10:26:44;;;;;;;31.60;21.20;;;22.00;64.30;;;;;;4990891;28;20481;-76
2022/03/24 10:29:12;;;;;;;30.87;21.13;;;22.20;62.10;;;;;;4989738;28;20430;-76
2022/03/24 10:31:39;;;;;;;35.43;22.53;;;22.60;64.60;;;;;;4988899;28;20979;-76
2022/03/24 10:34:06;;;;;;;29.97;19.77;;;22.80;65.50;;;;;;4989604;28;20423;-77
2022/03/24 10:36:32;;;;;;;29.80;22.03;;;23.30;60.40;;;;;;4990584;28;20473;-77
2022/03/24 10:39:01;;;;;;;30.87;21.70;;;23.30;62.70;;;;;;4990938;28;20838;-77
2022/03/24 10:41:29;;;;;;;25.97;21.13;;;23.50;62.20;;;;;;4990987;28;20198;-76
2022/03/24 10:44:00;;;;;;;26.20;20.10;;;23.30;59.30;;;;;;4990406;28;20509;-76
2022/03/24 10:46:28;;;;;;;29.90;21.00;;;23.20;58.00;;;;;;4990155;28;20442;-75
2022/03/24 10:48:55;;;;;;;27.07;21.27;;;23.40;59.70;;;;;;4990674;28;20501;-76
2022/03/24 10:51:27;;;;;;;31.93;22.00;;;23.80;58.30;;;;;;4989735;28;20442;-76
2022/03/24 10:54:16;;;;;;;32.67;22.20;;;23.30;57.90;;;;;;4989664;28;21009;-76
2022/03/24 10:56:52;;;;;;;30.33;22.23;;;23.20;57.70;;;;;;4989648;28;20458;-77
2022/03/24 10:59:18;;;;;;;28.20;21.87;;;23.40;57.90;;;;;;4990374;28;20418;-76
2022/03/24 11:01:45;;;;;;;27.57;21.87;;;23.50;57.30;;;;;;4988781;28;20493;-76
2022/03/24 11:04:10;;;;;;;28.40;21.00;;;23.70;57.90;;;;;;4989887;28;20644;-75
2022/03/24 11:06:36;;;;;;;26.23;21.07;;;23.80;57.90;;;;;;4989714;28;20454;-75
2022/03/24 11:09:02;;;;;;;28.43;22.60;;;23.70;57.10;;;;;;4990144;28;20183;-76
2022/03/24 11:11:29;;;;;;;34.27;22.93;;;23.60;57.20;;;;;;4989770;28;20841;-76
2022/03/24 11:13:59;;;;;;;26.23;22.60;;;23.30;56.80;;;;;;4990976;28;20410;-76
2022/03/24 11:16:30;;;;;;;39.10;22.60;;;23.40;59.30;;;;;;4990872;28;20470;-77
2022/03/24 11:19:14;;;;;;;29.50;20.90;;;23.10;55.30;;;;;;4990431;28;20407;-76
2022/03/24 11:21:50;;;;;;;27.60;19.60;;;22.30;55.60;;;;;;4996151;28;20465;-77
2022/03/24 11:24:23;;;;;;;20.10;17.73;;;22.80;56.90;;;;;;4998132;28;20411;-77
2022/03/24 11:27:10;;;;;;;23.87;18.77;;;23.00;55.70;;;;;;4996836;28;20411;-78
2022/03/24 11:29:43;;;;;;;21.03;16.40;;;23.20;55.40;;;;;;4993721;28;20488;-77
2022/03/24 11:32:10;;;;;;;22.65;18.25;;;22.90;51.60;;;;;;4992796;28;20435;-76
2022/03/24 11:34:36;;;;;;;21.63;16.43;;;23.10;52.50;;;;;;4994847;28;20180;-77
2022/03/24 11:37:02;;;;;;;21.53;14.70;;;23.10;53.70;;;;;;4993722;28;20430;-75
2022/03/24 11:39:28;;;;;;;23.07;17.30;;;23.00;50.00;;;;;;4993819;28;20423;-76
2022/03/24 11:41:56;;;;;;;22.80;19.40;;;23.10;53.00;;;;;;4995427;28;20453;-77
2022/03/24 11:44:37;;;;;;;25.97;18.73;;;23.20;54.30;;;;;;4993469;28;20245;-75
2022/03/24 11:47:12;;;;;;;28.63;21.30;;;23.10;53.90;;;;;;4994025;28;20419;-76
2022/03/24 11:49:38;;;;;;;34.50;21.97;;;23.00;54.80;;;;;;4992566;28;20493;-76
2022/03/24 11:52:03;;;;;;;31.50;22.60;;;23.00;56.20;;;;;;4993006;28;20531;-75
2022/03/24 11:54:38;;;;;;;29.20;21.50;;;22.90;55.60;;;;;;4992822;28;20180;-77
2022/03/24 11:57:21;;;;;;;28.67;21.97;;;22.90;55.40;;;;;;4992697;28;20175;-76
2022/03/24 11:59:49;;;;;;;29.10;20.07;;;23.00;57.40;;;;;;4993264;28;20772;-76
2022/03/24 12:02:21;;;;;;;27.20;19.87;;;22.60;54.00;;;;;;4992730;28;20444;-76
2022/03/24 12:04:57;;;;;;;26.73;19.90;;;22.40;54.90;;;;;;4992491;28;20411;-76
2022/03/24 12:07:24;;;;;;;23.33;17.83;;;22.10;53.00;;;;;;4992300;28;20907;-76
2022/03/24 12:10:09;;;;;;;23.73;18.30;;;22.10;54.70;;;;;;4993633;28;20552;-75
2022/03/24 12:12:36;;;;;;;25.97;18.87;;;21.80;53.60;;;;;;4991738;28;20438;-77
2022/03/24 12:15:10;;;;;;;24.13;17.07;;;21.90;52.90;;;;;;4993706;28;20418;-75
2022/03/24 12:17:36;;;;;;;27.83;17.50;;;21.80;52.40;;;;;;4993027;28;20426;-77
2022/03/24 12:20:18;;;;;;;21.90;16.77;;;21.90;52.20;;;;;;4993582;28;20415;-75
2022/03/24 12:22:44;;;;;;;22.90;17.23;;;21.90;53.10;;;;;;4992715;28;20209;-76
2022/03/24 12:25:12;;;;;;;21.47;17.00;;;22.00;54.10;;;;;;4992031;28;20462;-76
2022/03/24 12:28:00;;;;;;;18.27;14.83;;;21.80;51.00;;;;;;4993365;28;20202;-75
2022/03/24 12:30:27;;;;;;;20.40;16.10;;;21.80;53.20;;;;;;4993087;28;20414;-76
2022/03/24 12:33:10;;;;;;;19.80;15.03;;;22.00;54.10;;;;;;4992168;28;20541;-75
2022/03/24 12:35:52;;;;;;;21.10;16.50;;;22.00;53.90;;;;;;4989026;28;20450;-77
2022/03/24 12:38:38;;;;;;;19.23;14.87;;;21.60;51.30;;;;;;4990576;28;20541;-74
2022/03/24 12:41:04;;;;;;;19.80;15.70;;;21.50;53.70;;;;;;4983985;28;20533;-74
2022/03/24 12:43:39;;;;;;;17.97;14.77;;;21.30;53.20;;;;;;4991490;28;20506;-73
2022/03/24 12:46:26;;;;;;;24.10;17.20;;;21.40;54.30;;;;;;4972629;28;20207;-73
2022/03/24 12:48:53;;;;;;;20.73;16.03;;;21.20;52.70;;;;;;4974182;28;20447;-73
2022/03/24 12:51:22;;;;;;;21.57;15.63;;;20.90;51.20;;;;;;4972967;28;20852;-73
2022/03/24 12:53:57;;;;;;;24.83;16.60;;;20.80;52.90;;;;;;4972172;28;20411;-74
2022/03/24 12:56:28;;;;;;;22.37;16.07;;;20.70;51.40;;;;;;4972054;28;20446;-73
2022/03/24 12:59:06;;;;;;;20.93;16.47;;;20.60;51.80;;;;;;4972729;28;20466;-74
2022/03/24 13:01:36;;;;;;;21.10;15.70;;;20.40;52.60;;;;;;4985922;28;20450;-76
2022/03/24 13:04:04;;;;;;;17.83;15.07;;;20.20;51.10;;;;;;4976509;28;20852;-76
2022/03/24 13:06:30;;;;;;;23.00;17.03;;;20.40;52.50;;;;;;5001490;28;20879;-76
2022/03/24 13:09:19;;;;;;;22.47;16.57;;;20.30;51.10;;;;;;5012306;28;20428;-77
2022/03/24 13:11:54;;;;;;;18.77;14.50;;;20.30;52.30;;;;;;5012881;28;20187;-76
2022/03/24 13:14:21;;;;;;;22.73;14.90;;;20.40;52.40;;;;;;5009452;28;20933;-76
2022/03/24 13:17:06;;;;;;;20.70;16.30;;;20.40;51.20;;;;;;5000338;28;20761;-76
2022/03/24 13:19:35;;;;;;;20.37;15.20;;;20.40;52.20;;;;;;4984993;28;20434;-76
2022/03/24 13:22:18;;;;;;;19.07;15.27;;;20.30;52.20;;;;;;4983783;28;20842;-76
2022/03/24 13:24:59;;;;;;;21.03;14.00;;;20.20;51.00;;;;;;4985358;28;20430;-76
2022/03/24 13:27:25;;;;;;;20.77;15.73;;;20.30;51.80;;;;;;4986081;28;20411;-76
2022/03/24 13:29:51;;;;;;;18.40;13.63;;;20.20;52.00;;;;;;4986542;28;21130;-76
2022/03/24 13:32:21;;;;;;;22.73;14.87;;;20.20;51.70;;;;;;4986386;28;20454;-76
2022/03/24 13:34:51;;;;;;;18.17;15.37;;;20.30;53.60;;;;;;4986173;28;20191;-76
2022/03/24 13:37:20;;;;;;;18.83;14.13;;;20.20;53.60;;;;;;4987405;28;20426;-76
2022/03/24 13:39:50;;;;;;;17.60;15.07;;;20.30;54.40;;;;;;4986415;28;20502;-76
2022/03/24 13:42:17;;;;;;;17.60;15.10;;;20.20;52.20;;;;;;4986322;28;20998;-76
2022/03/24 13:44:47;;;;;;;19.53;14.80;;;20.10;51.90;;;;;;4984519;28;20491;-76
2022/03/24 13:47:14;;;;;;;20.20;15.67;;;20.00;52.00;;;;;;4987537;28;20464;-76
2022/03/24 13:49:40;;;;;;;18.90;15.37;;;19.90;51.60;;;;;;4988022;28;20472;-76
2022/03/24 13:52:07;;;;;;;20.50;13.80;;;19.90;52.40;;;;;;4987726;28;20431;-76
2022/03/24 13:54:34;;;;;;;19.20;15.70;;;19.90;51.70;;;;;;4987013;28;20880;-76
2022/03/24 13:57:00;;;;;;;24.50;15.90;;;19.80;51.70;;;;;;4987412;28;20429;-75
2022/03/24 13:59:34;;;;;;;25.30;15.87;;;19.80;51.80;;;;;;4988017;28;20424;-75
2022/03/24 14:02:00;;;;;;;19.63;13.93;;;19.70;51.80;;;;;;4985589;28;20481;-76
2022/03/24 14:04:25;;;;;;;19.80;16.40;;;19.70;51.50;;;;;;4981805;28;20509;-76